sensor_id;sensor_type;location;lat;lon;timestamp;temperature;humidity
11256;HTU21D;5685;52.384;13.420;2022-10-26T00:02:50;21.00;99.90
11256;HTU21D;5685;52.384;13.420;2022-10-26T00:05:54;21.00;99.90
11256;HTU21D;5685;52.384;13.420;2022-10-26T00:08:57;21.00;99.90
11256;HTU21D;5685;52.384;13.420;2022-10-26T00:11:59;20.90;99.90
11256;HTU21D;5685;52.384;13.420;2022-10-26T00:15:03;20.90;99.90
11256;HTU21D;5685;52.384;13.420;2022-10-26T00:18:06;20.90;99.90
11256;HTU21D;5685;52.384;13.420;2022-10-26T00:21:09;20.90;99.90
11256;HTU21D;5685;52.384;13.420;2022-10-26T00:24:11;20.90;99.90
11256;HTU21D;5685;52.384;13.420;2022-10-26T00:27:14;20.90;99.90
11256;HTU21D;5685;52.384;13.420;2022-10-26T00:30:17;20.90;99.90
11256;HTU21D;5685;52.384;13.420;2022-10-26T00:33:20;20.90;99.90
11256;HTU21D;5685;52.384;13.420;2022-10-26T00:36:23;20.90;99.90
11256;HTU21D;5685;52.384;13.420;2022-10-26T00:39:26;20.90;99.90
11256;HTU21D;5685;52.384;13.420;2022-10-26T00:42:28;20.90;99.90
11256;HTU21D;5685;52.384;13.420;2022-10-26T00:45:32;20.80;99.90
11256;HTU21D;5685;52.384;13.420;2022-10-26T00:48:36;20.80;99.90
11256;HTU21D;5685;52.384;13.420;2022-10-26T00:51:44;20.80;99.90
11256;HTU21D;5685;52.384;13.420;2022-10-26T00:54:49;20.80;99.90
11256;HTU21D;5685;52.384;13.420;2022-10-26T00:57:53;20.80;99.90
11256;HTU21D;5685;52.384;13.420;2022-10-26T01:00:57;20.80;99.90
11256;HTU21D;5685;52.384;13.420;2022-10-26T01:03:59;20.80;99.90
11256;HTU21D;5685;52.384;13.420;2022-10-26T01:07:03;20.80;99.90
11256;HTU21D;5685;52.384;13.420;2022-10-26T01:10:07;20.80;99.90
11256;HTU21D;5685;52.384;13.420;2022-10-26T01:13:10;20.80;99.90
11256;HTU21D;5685;52.384;13.420;2022-10-26T01:16:27;20.80;99.90
11256;HTU21D;5685;52.384;13.420;2022-10-26T01:19:58;20.80;99.90
11256;HTU21D;5685;52.384;13.420;2022-10-26T01:23:33;20.80;99.90
11256;HTU21D;5685;52.384;13.420;2022-10-26T01:26:52;20.70;99.90
11256;HTU21D;5685;52.384;13.420;2022-10-26T01:30:30;20.70;99.90
11256;HTU21D;5685;52.384;13.420;2022-10-26T01:33:38;20.70;99.90
11256;HTU21D;5685;52.384;13.420;2022-10-26T01:36:48;20.70;99.90
11256;HTU21D;5685;52.384;13.420;2022-10-26T01:39:58;20.70;99.90
11256;HTU21D;5685;52.384;13.420;2022-10-26T01:43:07;20.70;99.90
11256;HTU21D;5685;52.384;13.420;2022-10-26T01:46:14;20.60;99.90
11256;HTU21D;5685;52.384;13.420;2022-10-26T01:49:21;20.60;99.90
11256;HTU21D;5685;52.384;13.420;2022-10-26T01:52:24;20.60;99.90
11256;HTU21D;5685;52.384;13.420;2022-10-26T01:55:48;20.60;99.90
11256;HTU21D;5685;52.384;13.420;2022-10-26T01:59:32;20.60;99.90
11256;HTU21D;5685;52.384;13.420;2022-10-26T02:02:58;20.60;99.90
11256;HTU21D;5685;52.384;13.420;2022-10-26T02:06:06;20.60;99.90
11256;HTU21D;5685;52.384;13.420;2022-10-26T02:09:19;20.60;99.90
11256;HTU21D;5685;52.384;13.420;2022-10-26T02:12:32;20.60;99.90
11256;HTU21D;5685;52.384;13.420;2022-10-26T02:15:45;20.50;99.90
11256;HTU21D;5685;52.384;13.420;2022-10-26T02:18:59;20.50;99.90
11256;HTU21D;5685;52.384;13.420;2022-10-26T02:22:08;20.50;99.90
11256;HTU21D;5685;52.384;13.420;2022-10-26T02:25:16;20.50;99.90
11256;HTU21D;5685;52.384;13.420;2022-10-26T02:28:23;20.50;99.90
11256;HTU21D;5685;52.384;13.420;2022-10-26T02:31:30;20.50;99.90
11256;HTU21D;5685;52.384;13.420;2022-10-26T02:34:35;20.50;99.90
11256;HTU21D;5685;52.384;13.420;2022-10-26T02:37:40;20.50;99.90
11256;HTU21D;5685;52.384;13.420;2022-10-26T02:40:43;20.40;99.90
11256;HTU21D;5685;52.384;13.420;2022-10-26T02:43:51;20.40;99.90
11256;HTU21D;5685;52.384;13.420;2022-10-26T02:46:54;20.40;99.90
11256;HTU21D;5685;52.384;13.420;2022-10-26T02:49:59;20.40;99.90
11256;HTU21D;5685;52.384;13.420;2022-10-26T02:53:08;20.40;99.90
11256;HTU21D;5685;52.384;13.420;2022-10-26T02:56:18;20.40;99.90
11256;HTU21D;5685;52.384;13.420;2022-10-26T02:59:25;20.40;99.90
11256;HTU21D;5685;52.384;13.420;2022-10-26T03:02:29;20.40;99.90
11256;HTU21D;5685;52.384;13.420;2022-10-26T03:05:33;20.40;99.90
11256;HTU21D;5685;52.384;13.420;2022-10-26T03:08:36;20.40;99.90
11256;HTU21D;5685;52.384;13.420;2022-10-26T03:11:38;20.40;99.90
11256;HTU21D;5685;52.384;13.420;2022-10-26T03:14:40;20.40;99.90
11256;HTU21D;5685;52.384;13.420;2022-10-26T03:17:43;20.40;99.90
11256;HTU21D;5685;52.384;13.420;2022-10-26T03:20:46;20.30;99.90
11256;HTU21D;5685;52.384;13.420;2022-10-26T03:23:48;20.30;99.90
11256;HTU21D;5685;52.384;13.420;2022-10-26T03:26:51;20.30;99.90
11256;HTU21D;5685;52.384;13.420;2022-10-26T03:29:53;20.30;99.90
11256;HTU21D;5685;52.384;13.420;2022-10-26T03:32:55;20.30;99.90
11256;HTU21D;5685;52.384;13.420;2022-10-26T03:35:59;20.30;99.90
11256;HTU21D;5685;52.384;13.420;2022-10-26T03:39:01;20.20;99.90
11256;HTU21D;5685;52.384;13.420;2022-10-26T03:42:04;20.20;99.90
11256;HTU21D;5685;52.384;13.420;2022-10-26T03:45:07;20.20;99.90
11256;HTU21D;5685;52.384;13.420;2022-10-26T03:48:10;20.20;99.90
11256;HTU21D;5685;52.384;13.420;2022-10-26T03:51:14;20.20;99.90
11256;HTU21D;5685;52.384;13.420;2022-10-26T03:54:16;20.20;99.90
11256;HTU21D;5685;52.384;13.420;2022-10-26T03:57:19;20.10;99.90
11256;HTU21D;5685;52.384;13.420;2022-10-26T04:00:21;20.10;99.90
11256;HTU21D;5685;52.384;13.420;2022-10-26T04:03:23;20.10;99.90
11256;HTU21D;5685;52.384;13.420;2022-10-26T04:06:26;20.10;99.90
11256;HTU21D;5685;52.384;13.420;2022-10-26T04:09:29;20.10;99.90
11256;HTU21D;5685;52.384;13.420;2022-10-26T04:12:31;20.10;99.90
11256;HTU21D;5685;52.384;13.420;2022-10-26T04:15:33;20.10;99.90
11256;HTU21D;5685;52.384;13.420;2022-10-26T04:18:35;20.10;99.90
11256;HTU21D;5685;52.384;13.420;2022-10-26T04:21:39;20.10;99.90
11256;HTU21D;5685;52.384;13.420;2022-10-26T04:24:41;20.10;99.90
11256;HTU21D;5685;52.384;13.420;2022-10-26T04:27:43;20.10;99.90
11256;HTU21D;5685;52.384;13.420;2022-10-26T04:30:46;20.00;99.90
11256;HTU21D;5685;52.384;13.420;2022-10-26T04:33:48;20.00;99.90
11256;HTU21D;5685;52.384;13.420;2022-10-26T04:36:52;20.00;99.90
11256;HTU21D;5685;52.384;13.420;2022-10-26T04:39:54;20.00;99.90
11256;HTU21D;5685;52.384;13.420;2022-10-26T04:42:56;20.00;99.90
11256;HTU21D;5685;52.384;13.420;2022-10-26T04:45:59;20.00;99.90
11256;HTU21D;5685;52.384;13.420;2022-10-26T04:49:01;20.00;99.90
11256;HTU21D;5685;52.384;13.420;2022-10-26T04:52:05;19.90;99.90
11256;HTU21D;5685;52.384;13.420;2022-10-26T04:55:08;19.90;99.90
11256;HTU21D;5685;52.384;13.420;2022-10-26T04:58:10;19.90;99.90
11256;HTU21D;5685;52.384;13.420;2022-10-26T05:01:13;19.90;99.90
11256;HTU21D;5685;52.384;13.420;2022-10-26T05:04:15;19.90;99.90
11256;HTU21D;5685;52.384;13.420;2022-10-26T05:07:19;19.90;99.90
11256;HTU21D;5685;52.384;13.420;2022-10-26T05:10:21;19.90;99.90
11256;HTU21D;5685;52.384;13.420;2022-10-26T05:13:23;19.90;99.90
11256;HTU21D;5685;52.384;13.420;2022-10-26T05:16:25;19.90;99.90
11256;HTU21D;5685;52.384;13.420;2022-10-26T05:19:28;19.90;99.90
11256;HTU21D;5685;52.384;13.420;2022-10-26T05:22:31;19.90;99.90
11256;HTU21D;5685;52.384;13.420;2022-10-26T05:25:35;19.80;99.90
11256;HTU21D;5685;52.384;13.420;2022-10-26T05:28:38;19.80;99.90
11256;HTU21D;5685;52.384;13.420;2022-10-26T05:31:40;19.80;99.90
11256;HTU21D;5685;52.384;13.420;2022-10-26T05:34:42;19.80;99.90
11256;HTU21D;5685;52.384;13.420;2022-10-26T05:37:46;19.80;99.90
11256;HTU21D;5685;52.384;13.420;2022-10-26T05:40:49;19.80;99.90
11256;HTU21D;5685;52.384;13.420;2022-10-26T05:43:52;19.80;99.90
11256;HTU21D;5685;52.384;13.420;2022-10-26T05:46:54;19.80;99.90
11256;HTU21D;5685;52.384;13.420;2022-10-26T05:49:56;19.80;99.90
11256;HTU21D;5685;52.384;13.420;2022-10-26T05:52:59;19.80;99.90
11256;HTU21D;5685;52.384;13.420;2022-10-26T05:56:02;19.80;99.90
11256;HTU21D;5685;52.384;13.420;2022-10-26T05:59:16;19.80;99.90
11256;HTU21D;5685;52.384;13.420;2022-10-26T06:02:29;19.80;99.90
11256;HTU21D;5685;52.384;13.420;2022-10-26T06:05:40;19.80;99.90
11256;HTU21D;5685;52.384;13.420;2022-10-26T06:08:48;19.70;99.90
11256;HTU21D;5685;52.384;13.420;2022-10-26T06:11:51;19.70;99.90
11256;HTU21D;5685;52.384;13.420;2022-10-26T06:14:54;19.70;99.90
11256;HTU21D;5685;52.384;13.420;2022-10-26T06:18:01;19.70;99.90
11256;HTU21D;5685;52.384;13.420;2022-10-26T06:21:18;19.70;99.90
11256;HTU21D;5685;52.384;13.420;2022-10-26T06:24:38;19.70;99.90
11256;HTU21D;5685;52.384;13.420;2022-10-26T06:27:49;19.70;99.90
11256;HTU21D;5685;52.384;13.420;2022-10-26T06:30:56;19.70;99.90
11256;HTU21D;5685;52.384;13.420;2022-10-26T06:33:59;19.70;99.90
11256;HTU21D;5685;52.384;13.420;2022-10-26T06:37:02;19.70;99.90
11256;HTU21D;5685;52.384;13.420;2022-10-26T06:40:07;19.70;99.90
11256;HTU21D;5685;52.384;13.420;2022-10-26T06:43:15;19.70;99.90
11256;HTU21D;5685;52.384;13.420;2022-10-26T06:46:28;19.70;99.90
11256;HTU21D;5685;52.384;13.420;2022-10-26T06:49:36;19.70;99.90
11256;HTU21D;5685;52.384;13.420;2022-10-26T06:52:43;19.70;99.90
11256;HTU21D;5685;52.384;13.420;2022-10-26T06:55:50;19.70;99.90
11256;HTU21D;5685;52.384;13.420;2022-10-26T06:58:53;19.70;99.90
11256;HTU21D;5685;52.384;13.420;2022-10-26T07:01:57;19.70;99.90
11256;HTU21D;5685;52.384;13.420;2022-10-26T07:04:59;19.70;99.90
11256;HTU21D;5685;52.384;13.420;2022-10-26T07:08:01;19.70;99.90
11256;HTU21D;5685;52.384;13.420;2022-10-26T07:11:05;19.70;99.90
11256;HTU21D;5685;52.384;13.420;2022-10-26T07:14:08;19.70;99.90
11256;HTU21D;5685;52.384;13.420;2022-10-26T07:17:11;19.60;99.90
11256;HTU21D;5685;52.384;13.420;2022-10-26T07:20:13;19.60;99.90
11256;HTU21D;5685;52.384;13.420;2022-10-26T07:23:16;19.60;99.90
11256;HTU21D;5685;52.384;13.420;2022-10-26T07:26:20;19.70;99.90
11256;HTU21D;5685;52.384;13.420;2022-10-26T07:29:23;19.60;99.90
11256;HTU21D;5685;52.384;13.420;2022-10-26T07:32:25;19.60;99.90
11256;HTU21D;5685;52.384;13.420;2022-10-26T07:35:28;19.60;99.90
11256;HTU21D;5685;52.384;13.420;2022-10-26T07:38:30;19.60;99.90
11256;HTU21D;5685;52.384;13.420;2022-10-26T07:41:34;19.60;99.90
11256;HTU21D;5685;52.384;13.420;2022-10-26T07:44:36;19.60;99.90
11256;HTU21D;5685;52.384;13.420;2022-10-26T07:47:38;19.60;99.90
11256;HTU21D;5685;52.384;13.420;2022-10-26T07:50:40;19.60;99.90
11256;HTU21D;5685;52.384;13.420;2022-10-26T07:53:43;19.60;99.90
11256;HTU21D;5685;52.384;13.420;2022-10-26T07:56:49;19.60;99.90
11256;HTU21D;5685;52.384;13.420;2022-10-26T07:59:51;19.60;99.90
11256;HTU21D;5685;52.384;13.420;2022-10-26T08:02:53;19.60;99.90
11256;HTU21D;5685;52.384;13.420;2022-10-26T08:05:56;19.60;99.90
11256;HTU21D;5685;52.384;13.420;2022-10-26T08:08:58;19.60;99.90
11256;HTU21D;5685;52.384;13.420;2022-10-26T08:12:01;19.60;99.90
11256;HTU21D;5685;52.384;13.420;2022-10-26T08:15:05;19.60;99.90
11256;HTU21D;5685;52.384;13.420;2022-10-26T08:18:07;19.60;99.90
11256;HTU21D;5685;52.384;13.420;2022-10-26T08:21:10;19.60;99.90
11256;HTU21D;5685;52.384;13.420;2022-10-26T08:24:13;19.60;99.90
11256;HTU21D;5685;52.384;13.420;2022-10-26T08:27:17;19.60;99.90
11256;HTU21D;5685;52.384;13.420;2022-10-26T08:30:19;19.60;99.90
11256;HTU21D;5685;52.384;13.420;2022-10-26T08:33:22;19.60;99.90
11256;HTU21D;5685;52.384;13.420;2022-10-26T08:36:26;19.60;99.90
11256;HTU21D;5685;52.384;13.420;2022-10-26T08:39:28;19.60;99.90
11256;HTU21D;5685;52.384;13.420;2022-10-26T08:42:39;19.60;99.90
11256;HTU21D;5685;52.384;13.420;2022-10-26T08:45:48;19.60;99.90
11256;HTU21D;5685;52.384;13.420;2022-10-26T08:48:54;19.60;99.90
11256;HTU21D;5685;52.384;13.420;2022-10-26T08:52:00;19.60;99.90
11256;HTU21D;5685;52.384;13.420;2022-10-26T08:55:04;19.60;99.90
11256;HTU21D;5685;52.384;13.420;2022-10-26T08:58:17;19.60;99.90
11256;HTU21D;5685;52.384;13.420;2022-10-26T09:01:22;19.60;99.90
11256;HTU21D;5685;52.384;13.420;2022-10-26T09:04:26;19.60;99.90
11256;HTU21D;5685;52.384;13.420;2022-10-26T09:07:42;19.60;99.90
11256;HTU21D;5685;52.384;13.420;2022-10-26T09:10:55;19.60;99.90
11256;HTU21D;5685;52.384;13.420;2022-10-26T09:14:12;19.60;99.90
11256;HTU21D;5685;52.384;13.420;2022-10-26T09:17:25;19.60;99.90
11256;HTU21D;5685;52.384;13.420;2022-10-26T09:20:53;19.60;99.90
11256;HTU21D;5685;52.384;13.420;2022-10-26T09:24:03;19.60;99.90
11256;HTU21D;5685;52.384;13.420;2022-10-26T09:27:15;19.60;99.90
11256;HTU21D;5685;52.384;13.420;2022-10-26T09:30:22;19.60;99.90
11256;HTU21D;5685;52.384;13.420;2022-10-26T09:33:25;19.60;99.90
11256;HTU21D;5685;52.384;13.420;2022-10-26T09:36:27;19.60;99.90
11256;HTU21D;5685;52.384;13.420;2022-10-26T09:39:37;19.60;99.90
11256;HTU21D;5685;52.384;13.420;2022-10-26T09:42:47;19.60;99.90
11256;HTU21D;5685;52.384;13.420;2022-10-26T09:45:53;19.60;99.90
11256;HTU21D;5685;52.384;13.420;2022-10-26T09:48:57;19.60;99.90
11256;HTU21D;5685;52.384;13.420;2022-10-26T09:52:00;19.60;99.90
11256;HTU21D;5685;52.384;13.420;2022-10-26T09:55:03;19.60;99.90
11256;HTU21D;5685;52.384;13.420;2022-10-26T09:58:13;19.60;99.90
11256;HTU21D;5685;52.384;13.420;2022-10-26T10:01:29;19.60;99.90
11256;HTU21D;5685;52.384;13.420;2022-10-26T10:04:32;19.60;99.90
11256;HTU21D;5685;52.384;13.420;2022-10-26T10:07:34;19.60;99.90
11256;HTU21D;5685;52.384;13.420;2022-10-26T10:10:37;19.60;99.90
11256;HTU21D;5685;52.384;13.420;2022-10-26T10:13:40;19.60;99.90
11256;HTU21D;5685;52.384;13.420;2022-10-26T10:16:53;19.60;99.90
11256;HTU21D;5685;52.384;13.420;2022-10-26T10:20:06;19.60;99.90
11256;HTU21D;5685;52.384;13.420;2022-10-26T10:23:24;19.60;99.90
11256;HTU21D;5685;52.384;13.420;2022-10-26T10:26:28;19.60;99.90
11256;HTU21D;5685;52.384;13.420;2022-10-26T10:29:32;19.70;99.90
11256;HTU21D;5685;52.384;13.420;2022-10-26T10:32:37;19.70;99.90
11256;HTU21D;5685;52.384;13.420;2022-10-26T10:35:47;19.70;99.90
11256;HTU21D;5685;52.384;13.420;2022-10-26T10:38:52;19.70;99.90
11256;HTU21D;5685;52.384;13.420;2022-10-26T10:41:55;19.70;99.90
11256;HTU21D;5685;52.384;13.420;2022-10-26T10:44:58;19.70;99.90
11256;HTU21D;5685;52.384;13.420;2022-10-26T10:48:04;19.70;99.90
11256;HTU21D;5685;52.384;13.420;2022-10-26T10:51:18;19.70;99.90
11256;HTU21D;5685;52.384;13.420;2022-10-26T10:54:26;19.70;99.90
11256;HTU21D;5685;52.384;13.420;2022-10-26T10:57:35;19.70;99.90
11256;HTU21D;5685;52.384;13.420;2022-10-26T11:00:43;19.70;99.90
11256;HTU21D;5685;52.384;13.420;2022-10-26T11:04:04;19.70;99.90
11256;HTU21D;5685;52.384;13.420;2022-10-26T11:07:16;19.70;99.90
11256;HTU21D;5685;52.384;13.420;2022-10-26T11:10:21;19.70;99.90
11256;HTU21D;5685;52.384;13.420;2022-10-26T11:13:32;19.70;99.90
11256;HTU21D;5685;52.384;13.420;2022-10-26T11:16:39;19.70;99.90
11256;HTU21D;5685;52.384;13.420;2022-10-26T11:19:48;19.70;99.90
11256;HTU21D;5685;52.384;13.420;2022-10-26T11:23:02;19.80;99.90
11256;HTU21D;5685;52.384;13.420;2022-10-26T11:26:12;19.80;99.90
11256;HTU21D;5685;52.384;13.420;2022-10-26T11:29:23;19.80;99.90
11256;HTU21D;5685;52.384;13.420;2022-10-26T11:32:34;19.80;99.90
11256;HTU21D;5685;52.384;13.420;2022-10-26T11:35:44;19.80;99.90
11256;HTU21D;5685;52.384;13.420;2022-10-26T11:38:50;19.80;99.90
11256;HTU21D;5685;52.384;13.420;2022-10-26T11:42:00;19.80;99.90
11256;HTU21D;5685;52.384;13.420;2022-10-26T11:45:11;19.80;99.90
11256;HTU21D;5685;52.384;13.420;2022-10-26T11:48:21;19.90;99.90
11256;HTU21D;5685;52.384;13.420;2022-10-26T11:51:36;19.90;99.90
11256;HTU21D;5685;52.384;13.420;2022-10-26T11:54:43;19.90;99.90
11256;HTU21D;5685;52.384;13.420;2022-10-26T11:57:49;19.90;99.90
11256;HTU21D;5685;52.384;13.420;2022-10-26T12:00:54;19.90;99.90
11256;HTU21D;5685;52.384;13.420;2022-10-26T12:04:00;19.90;99.90
11256;HTU21D;5685;52.384;13.420;2022-10-26T12:07:08;19.90;99.90
11256;HTU21D;5685;52.384;13.420;2022-10-26T12:10:22;19.90;99.90
11256;HTU21D;5685;52.384;13.420;2022-10-26T12:13:32;19.90;99.90
11256;HTU21D;5685;52.384;13.420;2022-10-26T12:16:43;19.90;99.90
11256;HTU21D;5685;52.384;13.420;2022-10-26T12:19:57;20.00;99.90
11256;HTU21D;5685;52.384;13.420;2022-10-26T12:23:09;20.00;99.90
11256;HTU21D;5685;52.384;13.420;2022-10-26T12:30:13;20.00;99.90
11256;HTU21D;5685;52.384;13.420;2022-10-26T12:33:28;20.00;99.90
11256;HTU21D;5685;52.384;13.420;2022-10-26T12:36:47;20.00;99.90
11256;HTU21D;5685;52.384;13.420;2022-10-26T12:39:51;20.00;99.90
11256;HTU21D;5685;52.384;13.420;2022-10-26T12:42:53;20.00;99.90
11256;HTU21D;5685;52.384;13.420;2022-10-26T12:49:59;20.10;99.90
11256;HTU21D;5685;52.384;13.420;2022-10-26T12:53:06;20.10;99.90
11256;HTU21D;5685;52.384;13.420;2022-10-26T12:56:16;20.10;99.90
11256;HTU21D;5685;52.384;13.420;2022-10-26T12:59:25;20.10;99.90
11256;HTU21D;5685;52.384;13.420;2022-10-26T13:02:43;20.10;99.90
11256;HTU21D;5685;52.384;13.420;2022-10-26T13:06:15;20.10;99.90
11256;HTU21D;5685;52.384;13.420;2022-10-26T13:09:26;20.10;99.90
11256;HTU21D;5685;52.384;13.420;2022-10-26T13:12:44;20.10;99.90
11256;HTU21D;5685;52.384;13.420;2022-10-26T13:15:53;20.10;99.90
11256;HTU21D;5685;52.384;13.420;2022-10-26T13:18:57;20.20;99.90
11256;HTU21D;5685;52.384;13.420;2022-10-26T13:22:00;20.20;99.90
11256;HTU21D;5685;52.384;13.420;2022-10-26T13:25:04;20.20;99.90
11256;HTU21D;5685;52.384;13.420;2022-10-26T13:28:30;20.20;99.90
11256;HTU21D;5685;52.384;13.420;2022-10-26T13:31:52;20.20;99.90
11256;HTU21D;5685;52.384;13.420;2022-10-26T13:34:58;20.20;99.90
11256;HTU21D;5685;52.384;13.420;2022-10-26T13:38:08;20.20;99.90
11256;HTU21D;5685;52.384;13.420;2022-10-26T13:41:19;20.20;99.90
11256;HTU21D;5685;52.384;13.420;2022-10-26T13:44:28;20.30;99.90
11256;HTU21D;5685;52.384;13.420;2022-10-26T13:47:41;20.30;99.90
11256;HTU21D;5685;52.384;13.420;2022-10-26T13:50:48;20.30;99.90
11256;HTU21D;5685;52.384;13.420;2022-10-26T13:53:58;20.30;99.90
11256;HTU21D;5685;52.384;13.420;2022-10-26T13:57:11;20.30;99.90
11256;HTU21D;5685;52.384;13.420;2022-10-26T14:00:19;20.30;99.90
11256;HTU21D;5685;52.384;13.420;2022-10-26T14:03:25;20.30;99.90
11256;HTU21D;5685;52.384;13.420;2022-10-26T14:06:31;20.30;99.90
11256;HTU21D;5685;52.384;13.420;2022-10-26T14:09:34;20.40;99.90
11256;HTU21D;5685;52.384;13.420;2022-10-26T14:12:37;20.40;99.90
11256;HTU21D;5685;52.384;13.420;2022-10-26T14:15:43;20.40;99.90
11256;HTU21D;5685;52.384;13.420;2022-10-26T14:18:48;20.40;99.90
11256;HTU21D;5685;52.384;13.420;2022-10-26T14:21:51;20.40;99.90
11256;HTU21D;5685;52.384;13.420;2022-10-26T14:24:55;20.40;99.90
11256;HTU21D;5685;52.384;13.420;2022-10-26T14:27:58;20.40;99.90
11256;HTU21D;5685;52.384;13.420;2022-10-26T14:31:12;20.40;99.90
11256;HTU21D;5685;52.384;13.420;2022-10-26T14:34:21;20.40;99.90
11256;HTU21D;5685;52.384;13.420;2022-10-26T14:37:29;20.40;99.90
11256;HTU21D;5685;52.384;13.420;2022-10-26T14:40:37;20.40;99.90
11256;HTU21D;5685;52.384;13.420;2022-10-26T14:43:39;20.40;99.90
11256;HTU21D;5685;52.384;13.420;2022-10-26T14:46:43;20.40;99.90
11256;HTU21D;5685;52.384;13.420;2022-10-26T14:49:45;20.40;99.90
11256;HTU21D;5685;52.384;13.420;2022-10-26T14:52:49;20.40;99.90
11256;HTU21D;5685;52.384;13.420;2022-10-26T14:55:53;20.40;99.90
11256;HTU21D;5685;52.384;13.420;2022-10-26T14:58:57;20.50;99.90
11256;HTU21D;5685;52.384;13.420;2022-10-26T15:02:11;20.50;99.90
11256;HTU21D;5685;52.384;13.420;2022-10-26T15:05:19;20.50;99.90
11256;HTU21D;5685;52.384;13.420;2022-10-26T15:08:40;20.50;99.90
11256;HTU21D;5685;52.384;13.420;2022-10-26T15:11:43;20.50;99.90
11256;HTU21D;5685;52.384;13.420;2022-10-26T15:14:45;20.50;99.90
11256;HTU21D;5685;52.384;13.420;2022-10-26T15:17:52;20.50;99.90
11256;HTU21D;5685;52.384;13.420;2022-10-26T15:20:56;20.50;99.90
11256;HTU21D;5685;52.384;13.420;2022-10-26T15:23:59;20.50;99.90
11256;HTU21D;5685;52.384;13.420;2022-10-26T15:27:03;20.50;99.90
11256;HTU21D;5685;52.384;13.420;2022-10-26T15:30:15;20.50;99.90
11256;HTU21D;5685;52.384;13.420;2022-10-26T15:33:21;20.50;99.90
11256;HTU21D;5685;52.384;13.420;2022-10-26T15:36:24;20.50;99.90
11256;HTU21D;5685;52.384;13.420;2022-10-26T15:39:27;20.50;99.90
11256;HTU21D;5685;52.384;13.420;2022-10-26T15:42:29;20.50;99.90
11256;HTU21D;5685;52.384;13.420;2022-10-26T15:45:34;20.50;99.90
11256;HTU21D;5685;52.384;13.420;2022-10-26T15:48:39;20.50;99.90
11256;HTU21D;5685;52.384;13.420;2022-10-26T15:51:43;20.50;99.90
11256;HTU21D;5685;52.384;13.420;2022-10-26T15:54:46;20.50;99.90
11256;HTU21D;5685;52.384;13.420;2022-10-26T15:57:49;20.50;99.90
11256;HTU21D;5685;52.384;13.420;2022-10-26T16:00:51;20.60;99.90
11256;HTU21D;5685;52.384;13.420;2022-10-26T16:03:55;20.60;99.90
11256;HTU21D;5685;52.384;13.420;2022-10-26T16:06:57;20.50;99.90
11256;HTU21D;5685;52.384;13.420;2022-10-26T16:10:05;20.60;99.90
11256;HTU21D;5685;52.384;13.420;2022-10-26T16:13:11;20.60;99.90
11256;HTU21D;5685;52.384;13.420;2022-10-26T16:16:15;20.60;99.90
11256;HTU21D;5685;52.384;13.420;2022-10-26T16:19:20;20.50;99.90
11256;HTU21D;5685;52.384;13.420;2022-10-26T16:22:22;20.60;99.90
11256;HTU21D;5685;52.384;13.420;2022-10-26T16:25:25;20.60;99.90
11256;HTU21D;5685;52.384;13.420;2022-10-26T16:28:27;20.50;99.90
11256;HTU21D;5685;52.384;13.420;2022-10-26T16:31:29;20.60;99.90
11256;HTU21D;5685;52.384;13.420;2022-10-26T16:34:33;20.60;99.90
11256;HTU21D;5685;52.384;13.420;2022-10-26T16:37:35;20.60;99.90
11256;HTU21D;5685;52.384;13.420;2022-10-26T16:40:38;20.50;99.90
11256;HTU21D;5685;52.384;13.420;2022-10-26T16:43:43;20.60;99.90
11256;HTU21D;5685;52.384;13.420;2022-10-26T16:46:47;20.60;99.90
11256;HTU21D;5685;52.384;13.420;2022-10-26T16:49:50;20.60;99.90
11256;HTU21D;5685;52.384;13.420;2022-10-26T16:52:53;20.60;99.90
11256;HTU21D;5685;52.384;13.420;2022-10-26T16:56:00;20.60;99.90
11256;HTU21D;5685;52.384;13.420;2022-10-26T16:59:03;20.60;99.90
11256;HTU21D;5685;52.384;13.420;2022-10-26T17:02:05;20.60;99.90
11256;HTU21D;5685;52.384;13.420;2022-10-26T17:05:09;20.60;99.90
11256;HTU21D;5685;52.384;13.420;2022-10-26T17:08:11;20.60;99.90
11256;HTU21D;5685;52.384;13.420;2022-10-26T17:11:15;20.60;99.90
11256;HTU21D;5685;52.384;13.420;2022-10-26T17:14:17;20.60;99.90
11256;HTU21D;5685;52.384;13.420;2022-10-26T17:17:20;20.60;99.90
11256;HTU21D;5685;52.384;13.420;2022-10-26T17:20:23;20.60;99.90
11256;HTU21D;5685;52.384;13.420;2022-10-26T17:23:25;20.60;99.90
11256;HTU21D;5685;52.384;13.420;2022-10-26T17:26:27;20.60;99.90
11256;HTU21D;5685;52.384;13.420;2022-10-26T17:29:30;20.60;99.90
11256;HTU21D;5685;52.384;13.420;2022-10-26T17:32:32;20.60;99.90
11256;HTU21D;5685;52.384;13.420;2022-10-26T17:35:36;20.60;99.90
11256;HTU21D;5685;52.384;13.420;2022-10-26T17:38:40;20.60;99.90
11256;HTU21D;5685;52.384;13.420;2022-10-26T17:41:42;20.60;99.90
11256;HTU21D;5685;52.384;13.420;2022-10-26T17:44:44;20.60;99.90
11256;HTU21D;5685;52.384;13.420;2022-10-26T17:47:46;20.60;99.90
11256;HTU21D;5685;52.384;13.420;2022-10-26T17:50:50;20.60;99.90
11256;HTU21D;5685;52.384;13.420;2022-10-26T17:53:53;20.60;99.90
11256;HTU21D;5685;52.384;13.420;2022-10-26T17:56:55;20.60;99.90
11256;HTU21D;5685;52.384;13.420;2022-10-26T17:59:58;20.70;99.90
11256;HTU21D;5685;52.384;13.420;2022-10-26T18:03:00;20.70;99.90
11256;HTU21D;5685;52.384;13.420;2022-10-26T18:06:06;20.70;99.90
11256;HTU21D;5685;52.384;13.420;2022-10-26T18:09:08;20.60;99.90
11256;HTU21D;5685;52.384;13.420;2022-10-26T18:12:10;20.70;99.90
11256;HTU21D;5685;52.384;13.420;2022-10-26T18:15:12;20.70;99.90
11256;HTU21D;5685;52.384;13.420;2022-10-26T18:18:15;20.70;99.90
11256;HTU21D;5685;52.384;13.420;2022-10-26T18:21:19;20.70;99.90
11256;HTU21D;5685;52.384;13.420;2022-10-26T18:24:22;20.70;99.90
11256;HTU21D;5685;52.384;13.420;2022-10-26T18:27:24;20.70;99.90
11256;HTU21D;5685;52.384;13.420;2022-10-26T18:30:26;20.70;99.90
11256;HTU21D;5685;52.384;13.420;2022-10-26T18:33:29;20.70;99.90
11256;HTU21D;5685;52.384;13.420;2022-10-26T18:36:33;20.70;99.90
11256;HTU21D;5685;52.384;13.420;2022-10-26T18:39:35;20.70;99.90
11256;HTU21D;5685;52.384;13.420;2022-10-26T18:42:37;20.70;99.90
11256;HTU21D;5685;52.384;13.420;2022-10-26T18:45:39;20.70;99.90
11256;HTU21D;5685;52.384;13.420;2022-10-26T18:48:41;20.70;99.90
11256;HTU21D;5685;52.384;13.420;2022-10-26T18:51:46;20.70;99.90
11256;HTU21D;5685;52.384;13.420;2022-10-26T18:54:48;20.70;99.90
11256;HTU21D;5685;52.384;13.420;2022-10-26T18:57:51;20.70;99.90
11256;HTU21D;5685;52.384;13.420;2022-10-26T19:00:53;20.70;99.90
11256;HTU21D;5685;52.384;13.420;2022-10-26T19:03:57;20.70;99.90
11256;HTU21D;5685;52.384;13.420;2022-10-26T19:07:01;20.70;99.90
11256;HTU21D;5685;52.384;13.420;2022-10-26T19:10:04;20.70;99.90
11256;HTU21D;5685;52.384;13.420;2022-10-26T19:13:07;20.70;99.90
11256;HTU21D;5685;52.384;13.420;2022-10-26T19:16:10;20.70;99.90
11256;HTU21D;5685;52.384;13.420;2022-10-26T19:19:14;20.70;99.90
11256;HTU21D;5685;52.384;13.420;2022-10-26T19:22:18;20.70;99.90
11256;HTU21D;5685;52.384;13.420;2022-10-26T19:25:20;20.70;99.90